sensor_id;sensor_type;location;lat;lon;timestamp;P1;durP1;ratioP1;P2;durP2;ratioP2
23628;SDS011;11991;57.150;-2.134;2022-11-04T00:01:43;5.65;;;0.98;;
23628;SDS011;11991;57.150;-2.134;2022-11-04T00:04:12;0.50;;;0.50;;
23628;SDS011;11991;57.150;-2.134;2022-11-04T00:06:40;1.77;;;0.73;;
23628;SDS011;11991;57.150;-2.134;2022-11-04T00:09:10;0.82;;;0.70;;
23628;SDS011;11991;57.150;-2.134;2022-11-04T00:11:41;0.50;;;0.50;;
23628;SDS011;11991;57.150;-2.134;2022-11-04T00:14:27;0.75;;;0.50;;
23628;SDS011;11991;57.150;-2.134;2022-11-04T00:16:56;0.90;;;0.60;;
23628;SDS011;11991;57.150;-2.134;2022-11-04T00:19:42;0.52;;;0.52;;
23628;SDS011;11991;57.150;-2.134;2022-11-04T00:22:29;0.60;;;0.60;;
23628;SDS011;11991;57.150;-2.134;2022-11-04T00:25:14;1.17;;;0.60;;
23628;SDS011;11991;57.150;-2.134;2022-11-04T00:28:04;0.75;;;0.75;;
23628;SDS011;11991;57.150;-2.134;2022-11-04T00:31:01;0.52;;;0.52;;
23628;SDS011;11991;57.150;-2.134;2022-11-04T00:33:52;2.05;;;0.80;;
23628;SDS011;11991;57.150;-2.134;2022-11-04T00:36:22;1.02;;;0.73;;
23628;SDS011;11991;57.150;-2.134;2022-11-04T00:41:42;0.40;;;0.40;;
23628;SDS011;11991;57.150;-2.134;2022-11-04T00:44:10;0.77;;;0.60;;
23628;SDS011;11991;57.150;-2.134;2022-11-04T00:46:37;1.55;;;0.85;;
23628;SDS011;11991;57.150;-2.134;2022-11-04T00:49:04;0.80;;;0.65;;
23628;SDS011;11991;57.150;-2.134;2022-11-04T00:51:32;1.77;;;1.02;;
23628;SDS011;11991;57.150;-2.134;2022-11-04T00:53:59;0.70;;;0.70;;
23628;SDS011;11991;57.150;-2.134;2022-11-04T00:56:26;0.52;;;0.50;;
23628;SDS011;11991;57.150;-2.134;2022-11-04T00:58:53;1.08;;;0.60;;
23628;SDS011;11991;57.150;-2.134;2022-11-04T01:01:21;1.27;;;0.60;;
23628;SDS011;11991;57.150;-2.134;2022-11-04T01:03:48;1.38;;;0.60;;
23628;SDS011;11991;57.150;-2.134;2022-11-04T01:06:17;0.75;;;0.60;;
23628;SDS011;11991;57.150;-2.134;2022-11-04T01:08:46;0.50;;;0.50;;
23628;SDS011;11991;57.150;-2.134;2022-11-04T01:11:14;0.98;;;0.63;;
23628;SDS011;11991;57.150;-2.134;2022-11-04T01:13:42;0.82;;;0.70;;
23628;SDS011;11991;57.150;-2.134;2022-11-04T01:16:10;3.35;;;0.80;;
23628;SDS011;11991;57.150;-2.134;2022-11-04T01:18:38;1.00;;;0.68;;
23628;SDS011;11991;57.150;-2.134;2022-11-04T01:21:07;2.15;;;0.70;;
23628;SDS011;11991;57.150;-2.134;2022-11-04T01:23:36;1.33;;;0.80;;
23628;SDS011;11991;57.150;-2.134;2022-11-04T01:26:04;1.30;;;0.80;;
23628;SDS011;11991;57.150;-2.134;2022-11-04T01:28:32;0.88;;;0.68;;
23628;SDS011;11991;57.150;-2.134;2022-11-04T01:31:10;0.80;;;0.60;;
23628;SDS011;11991;57.150;-2.134;2022-11-04T01:33:39;0.65;;;0.52;;
23628;SDS011;11991;57.150;-2.134;2022-11-04T01:36:11;1.45;;;0.63;;
23628;SDS011;11991;57.150;-2.134;2022-11-04T01:38:38;0.80;;;0.70;;
23628;SDS011;11991;57.150;-2.134;2022-11-04T01:41:06;0.80;;;0.60;;
23628;SDS011;11991;57.150;-2.134;2022-11-04T01:46:26;0.88;;;0.50;;
23628;SDS011;11991;57.150;-2.134;2022-11-04T01:52:10;0.40;;;0.40;;
23628;SDS011;11991;57.150;-2.134;2022-11-04T01:54:43;0.70;;;0.60;;
23628;SDS011;11991;57.150;-2.134;2022-11-04T01:57:15;0.60;;;0.60;;
23628;SDS011;11991;57.150;-2.134;2022-11-04T01:59:44;1.35;;;0.70;;
23628;SDS011;11991;57.150;-2.134;2022-11-04T02:02:12;0.60;;;0.55;;
23628;SDS011;11991;57.150;-2.134;2022-11-04T02:04:40;0.73;;;0.50;;
23628;SDS011;11991;57.150;-2.134;2022-11-04T02:07:09;1.00;;;0.60;;
23628;SDS011;11991;57.150;-2.134;2022-11-04T02:09:38;0.52;;;0.52;;
23628;SDS011;11991;57.150;-2.134;2022-11-04T02:12:05;0.77;;;0.60;;
23628;SDS011;11991;57.150;-2.134;2022-11-04T02:14:52;0.98;;;0.60;;
23628;SDS011;11991;57.150;-2.134;2022-11-04T02:23:09;0.50;;;0.50;;
23628;SDS011;11991;57.150;-2.134;2022-11-04T02:26:10;0.50;;;0.50;;
23628;SDS011;11991;57.150;-2.134;2022-11-04T02:31:36;0.95;;;0.52;;
23628;SDS011;11991;57.150;-2.134;2022-11-04T02:34:38;1.13;;;0.50;;
23628;SDS011;11991;57.150;-2.134;2022-11-04T02:39:48;1.17;;;0.60;;
23628;SDS011;11991;57.150;-2.134;2022-11-04T02:42:37;1.50;;;0.55;;
23628;SDS011;11991;57.150;-2.134;2022-11-04T02:47:44;0.50;;;0.50;;
23628;SDS011;11991;57.150;-2.134;2022-11-04T02:50:25;0.63;;;0.52;;
23628;SDS011;11991;57.150;-2.134;2022-11-04T02:53:01;0.88;;;0.45;;
23628;SDS011;11991;57.150;-2.134;2022-11-04T02:55:41;0.50;;;0.50;;
23628;SDS011;11991;57.150;-2.134;2022-11-04T02:58:20;1.17;;;0.60;;
23628;SDS011;11991;57.150;-2.134;2022-11-04T03:00:51;0.50;;;0.50;;
23628;SDS011;11991;57.150;-2.134;2022-11-04T03:03:23;0.40;;;0.40;;
23628;SDS011;11991;57.150;-2.134;2022-11-04T03:05:54;0.90;;;0.52;;
23628;SDS011;11991;57.150;-2.134;2022-11-04T03:08:25;0.50;;;0.50;;
23628;SDS011;11991;57.150;-2.134;2022-11-04T03:10:58;1.17;;;0.73;;
23628;SDS011;11991;57.150;-2.134;2022-11-04T03:13:43;0.70;;;0.50;;
23628;SDS011;11991;57.150;-2.134;2022-11-04T03:16:41;0.50;;;0.50;;
23628;SDS011;11991;57.150;-2.134;2022-11-04T03:19:25;0.50;;;0.50;;
23628;SDS011;11991;57.150;-2.134;2022-11-04T03:22:19;0.50;;;0.50;;
23628;SDS011;11991;57.150;-2.134;2022-11-04T03:24:49;0.85;;;0.50;;
23628;SDS011;11991;57.150;-2.134;2022-11-04T03:27:30;0.40;;;0.40;;
23628;SDS011;11991;57.150;-2.134;2022-11-04T03:30:15;0.52;;;0.50;;
23628;SDS011;11991;57.150;-2.134;2022-11-04T03:35:35;1.23;;;0.45;;
23628;SDS011;11991;57.150;-2.134;2022-11-04T03:38:02;0.50;;;0.50;;
23628;SDS011;11991;57.150;-2.134;2022-11-04T03:40:29;0.40;;;0.40;;
23628;SDS011;11991;57.150;-2.134;2022-11-04T03:43:08;0.52;;;0.50;;
23628;SDS011;11991;57.150;-2.134;2022-11-04T03:45:39;0.50;;;0.40;;
23628;SDS011;11991;57.150;-2.134;2022-11-04T03:48:07;0.50;;;0.50;;
23628;SDS011;11991;57.150;-2.134;2022-11-04T03:50:42;0.38;;;0.38;;
23628;SDS011;11991;57.150;-2.134;2022-11-04T03:53:15;1.33;;;0.50;;
23628;SDS011;11991;57.150;-2.134;2022-11-04T03:58:36;2.15;;;0.70;;
23628;SDS011;11991;57.150;-2.134;2022-11-04T04:03:57;1.05;;;0.50;;
23628;SDS011;11991;57.150;-2.134;2022-11-04T04:06:37;0.43;;;0.43;;
23628;SDS011;11991;57.150;-2.134;2022-11-04T04:09:41;0.63;;;0.50;;
23628;SDS011;11991;57.150;-2.134;2022-11-04T04:14:45;0.50;;;0.50;;
23628;SDS011;11991;57.150;-2.134;2022-11-04T04:17:42;1.95;;;0.80;;
23628;SDS011;11991;57.150;-2.134;2022-11-04T04:20:19;0.70;;;0.50;;
23628;SDS011;11991;57.150;-2.134;2022-11-04T04:22:57;0.40;;;0.40;;
23628;SDS011;11991;57.150;-2.134;2022-11-04T04:25:51;0.55;;;0.40;;
23628;SDS011;11991;57.150;-2.134;2022-11-04T04:28:38;0.40;;;0.40;;
23628;SDS011;11991;57.150;-2.134;2022-11-04T04:31:07;0.40;;;0.40;;
23628;SDS011;11991;57.150;-2.134;2022-11-04T04:33:38;0.40;;;0.40;;
23628;SDS011;11991;57.150;-2.134;2022-11-04T04:36:05;0.30;;;0.30;;
23628;SDS011;11991;57.150;-2.134;2022-11-04T04:38:35;0.45;;;0.45;;
23628;SDS011;11991;57.150;-2.134;2022-11-04T04:41:29;0.40;;;0.40;;
23628;SDS011;11991;57.150;-2.134;2022-11-04T04:44:20;0.38;;;0.30;;
23628;SDS011;11991;57.150;-2.134;2022-11-04T04:47:15;0.50;;;0.43;;
23628;SDS011;11991;57.150;-2.134;2022-11-04T04:49:56;0.40;;;0.40;;
23628;SDS011;11991;57.150;-2.134;2022-11-04T04:52:26;0.90;;;0.50;;
23628;SDS011;11991;57.150;-2.134;2022-11-04T04:54:56;1.20;;;0.47;;
23628;SDS011;11991;57.150;-2.134;2022-11-04T04:57:24;0.45;;;0.40;;
23628;SDS011;11991;57.150;-2.134;2022-11-04T04:59:51;1.20;;;0.40;;
23628;SDS011;11991;57.150;-2.134;2022-11-04T05:02:18;0.60;;;0.40;;
23628;SDS011;11991;57.150;-2.134;2022-11-04T05:04:46;0.98;;;0.38;;
23628;SDS011;11991;57.150;-2.134;2022-11-04T05:07:13;0.65;;;0.50;;
23628;SDS011;11991;57.150;-2.134;2022-11-04T05:09:40;0.40;;;0.40;;
23628;SDS011;11991;57.150;-2.134;2022-11-04T05:12:08;0.40;;;0.40;;
23628;SDS011;11991;57.150;-2.134;2022-11-04T05:14:35;0.63;;;0.50;;
23628;SDS011;11991;57.150;-2.134;2022-11-04T05:17:03;0.30;;;0.30;;
23628;SDS011;11991;57.150;-2.134;2022-11-04T05:19:30;0.75;;;0.50;;
23628;SDS011;11991;57.150;-2.134;2022-11-04T05:21:57;0.30;;;0.30;;
23628;SDS011;11991;57.150;-2.134;2022-11-04T05:24:25;0.63;;;0.40;;
23628;SDS011;11991;57.150;-2.134;2022-11-04T05:26:52;0.50;;;0.40;;
23628;SDS011;11991;57.150;-2.134;2022-11-04T05:29:19;0.45;;;0.45;;
23628;SDS011;11991;57.150;-2.134;2022-11-04T05:31:46;0.63;;;0.50;;
23628;SDS011;11991;57.150;-2.134;2022-11-04T05:34:14;0.40;;;0.40;;
23628;SDS011;11991;57.150;-2.134;2022-11-04T05:36:41;0.50;;;0.50;;
23628;SDS011;11991;57.150;-2.134;2022-11-04T05:39:10;0.50;;;0.50;;
23628;SDS011;11991;57.150;-2.134;2022-11-04T05:41:39;0.50;;;0.50;;
23628;SDS011;11991;57.150;-2.134;2022-11-04T05:44:07;0.40;;;0.40;;
23628;SDS011;11991;57.150;-2.134;2022-11-04T05:46:36;0.50;;;0.50;;
23628;SDS011;11991;57.150;-2.134;2022-11-04T05:49:03;0.40;;;0.40;;
23628;SDS011;11991;57.150;-2.134;2022-11-04T05:51:31;0.60;;;0.40;;
23628;SDS011;11991;57.150;-2.134;2022-11-04T05:53:58;0.40;;;0.40;;
23628;SDS011;11991;57.150;-2.134;2022-11-04T05:56:26;0.40;;;0.40;;
23628;SDS011;11991;57.150;-2.134;2022-11-04T05:58:53;0.88;;;0.55;;
23628;SDS011;11991;57.150;-2.134;2022-11-04T06:01:34;0.47;;;0.40;;
23628;SDS011;11991;57.150;-2.134;2022-11-04T06:04:03;0.40;;;0.40;;
23628;SDS011;11991;57.150;-2.134;2022-11-04T06:06:33;0.63;;;0.50;;
23628;SDS011;11991;57.150;-2.134;2022-11-04T06:09:01;0.50;;;0.40;;
23628;SDS011;11991;57.150;-2.134;2022-11-04T06:11:29;0.40;;;0.40;;
23628;SDS011;11991;57.150;-2.134;2022-11-04T06:13:57;0.40;;;0.40;;
23628;SDS011;11991;57.150;-2.134;2022-11-04T06:16:25;0.50;;;0.50;;
23628;SDS011;11991;57.150;-2.134;2022-11-04T06:18:52;0.47;;;0.47;;
23628;SDS011;11991;57.150;-2.134;2022-11-04T06:21:22;0.73;;;0.32;;
23628;SDS011;11991;57.150;-2.134;2022-11-04T06:23:51;0.95;;;0.40;;
23628;SDS011;11991;57.150;-2.134;2022-11-04T06:26:20;0.50;;;0.50;;
23628;SDS011;11991;57.150;-2.134;2022-11-04T06:28:53;0.40;;;0.40;;
23628;SDS011;11991;57.150;-2.134;2022-11-04T06:31:21;0.93;;;0.93;;
23628;SDS011;11991;57.150;-2.134;2022-11-04T06:33:48;0.40;;;0.40;;
23628;SDS011;11991;57.150;-2.134;2022-11-04T06:36:15;0.70;;;0.43;;
23628;SDS011;11991;57.150;-2.134;2022-11-04T06:38:43;0.70;;;0.70;;
23628;SDS011;11991;57.150;-2.134;2022-11-04T06:41:11;1.17;;;0.77;;
23628;SDS011;11991;57.150;-2.134;2022-11-04T06:43:41;0.47;;;0.47;;
23628;SDS011;11991;57.150;-2.134;2022-11-04T06:49:05;0.40;;;0.40;;
23628;SDS011;11991;57.150;-2.134;2022-11-04T06:51:35;1.13;;;0.47;;
23628;SDS011;11991;57.150;-2.134;2022-11-04T06:54:03;0.60;;;0.60;;
23628;SDS011;11991;57.150;-2.134;2022-11-04T06:56:30;1.42;;;0.50;;
23628;SDS011;11991;57.150;-2.134;2022-11-04T06:58:57;0.98;;;0.40;;
23628;SDS011;11991;57.150;-2.134;2022-11-04T07:01:25;0.50;;;0.50;;
23628;SDS011;11991;57.150;-2.134;2022-11-04T07:03:55;1.23;;;0.40;;
23628;SDS011;11991;57.150;-2.134;2022-11-04T07:06:25;0.60;;;0.40;;
23628;SDS011;11991;57.150;-2.134;2022-11-04T07:08:55;0.40;;;0.40;;
23628;SDS011;11991;57.150;-2.134;2022-11-04T07:11:24;0.57;;;0.43;;
23628;SDS011;11991;57.150;-2.134;2022-11-04T07:13:53;0.30;;;0.30;;
23628;SDS011;11991;57.150;-2.134;2022-11-04T07:16:21;0.50;;;0.50;;
23628;SDS011;11991;57.150;-2.134;2022-11-04T07:18:48;0.32;;;0.32;;
23628;SDS011;11991;57.150;-2.134;2022-11-04T07:21:17;0.52;;;0.50;;
23628;SDS011;11991;57.150;-2.134;2022-11-04T07:23:44;0.40;;;0.40;;
23628;SDS011;11991;57.150;-2.134;2022-11-04T07:26:11;0.47;;;0.45;;
23628;SDS011;11991;57.150;-2.134;2022-11-04T07:28:39;0.95;;;0.38;;
23628;SDS011;11991;57.150;-2.134;2022-11-04T07:31:06;5.70;;;1.60;;
23628;SDS011;11991;57.150;-2.134;2022-11-04T07:33:36;1.10;;;0.40;;
23628;SDS011;11991;57.150;-2.134;2022-11-04T07:36:04;0.40;;;0.40;;
23628;SDS011;11991;57.150;-2.134;2022-11-04T07:38:33;0.50;;;0.50;;
23628;SDS011;11991;57.150;-2.134;2022-11-04T07:41:00;0.50;;;0.50;;
23628;SDS011;11991;57.150;-2.134;2022-11-04T07:43:30;0.55;;;0.50;;
23628;SDS011;11991;57.150;-2.134;2022-11-04T07:46:01;0.50;;;0.50;;
23628;SDS011;11991;57.150;-2.134;2022-11-04T07:48:30;0.40;;;0.40;;
23628;SDS011;11991;57.150;-2.134;2022-11-04T07:50:59;0.57;;;0.57;;
23628;SDS011;11991;57.150;-2.134;2022-11-04T07:53:27;0.57;;;0.57;;
23628;SDS011;11991;57.150;-2.134;2022-11-04T07:55:56;0.60;;;0.40;;
23628;SDS011;11991;57.150;-2.134;2022-11-04T07:58:23;0.50;;;0.50;;
23628;SDS011;11991;57.150;-2.134;2022-11-04T08:00:56;0.82;;;0.57;;
23628;SDS011;11991;57.150;-2.134;2022-11-04T08:03:25;1.17;;;0.68;;
23628;SDS011;11991;57.150;-2.134;2022-11-04T08:05:54;1.65;;;0.90;;
23628;SDS011;11991;57.150;-2.134;2022-11-04T08:08:22;1.83;;;0.90;;
23628;SDS011;11991;57.150;-2.134;2022-11-04T08:11:00;1.95;;;1.00;;
23628;SDS011;11991;57.150;-2.134;2022-11-04T08:13:43;2.30;;;0.98;;
23628;SDS011;11991;57.150;-2.134;2022-11-04T08:16:13;2.58;;;1.40;;
23628;SDS011;11991;57.150;-2.134;2022-11-04T08:18:43;1.83;;;1.52;;
23628;SDS011;11991;57.150;-2.134;2022-11-04T08:21:11;1.67;;;1.40;;
23628;SDS011;11991;57.150;-2.134;2022-11-04T08:23:38;1.77;;;1.05;;
23628;SDS011;11991;57.150;-2.134;2022-11-04T08:26:09;1.20;;;0.80;;
23628;SDS011;11991;57.150;-2.134;2022-11-04T08:28:38;0.90;;;0.90;;
23628;SDS011;11991;57.150;-2.134;2022-11-04T08:31:07;3.30;;;0.95;;
23628;SDS011;11991;57.150;-2.134;2022-11-04T08:33:37;0.70;;;0.60;;
23628;SDS011;11991;57.150;-2.134;2022-11-04T08:36:09;0.90;;;0.70;;
23628;SDS011;11991;57.150;-2.134;2022-11-04T08:38:44;1.08;;;0.80;;
23628;SDS011;11991;57.150;-2.134;2022-11-04T08:41:13;0.60;;;0.60;;
23628;SDS011;11991;57.150;-2.134;2022-11-04T08:43:42;0.85;;;0.65;;
23628;SDS011;11991;57.150;-2.134;2022-11-04T08:46:09;1.33;;;0.80;;
23628;SDS011;11991;57.150;-2.134;2022-11-04T08:48:37;0.80;;;0.80;;
23628;SDS011;11991;57.150;-2.134;2022-11-04T08:51:09;0.60;;;0.60;;
23628;SDS011;11991;57.150;-2.134;2022-11-04T08:53:38;0.70;;;0.60;;
23628;SDS011;11991;57.150;-2.134;2022-11-04T08:56:14;0.65;;;0.65;;
23628;SDS011;11991;57.150;-2.134;2022-11-04T08:58:46;1.17;;;0.60;;
23628;SDS011;11991;57.150;-2.134;2022-11-04T09:01:14;1.25;;;0.73;;
23628;SDS011;11991;57.150;-2.134;2022-11-04T09:03:43;1.95;;;0.90;;
23628;SDS011;11991;57.150;-2.134;2022-11-04T09:06:11;1.05;;;0.70;;
23628;SDS011;11991;57.150;-2.134;2022-11-04T09:08:41;0.93;;;0.70;;
23628;SDS011;11991;57.150;-2.134;2022-11-04T09:11:10;1.30;;;0.82;;
23628;SDS011;11991;57.150;-2.134;2022-11-04T09:13:38;0.60;;;0.60;;
23628;SDS011;11991;57.150;-2.134;2022-11-04T09:16:07;1.10;;;1.00;;
23628;SDS011;11991;57.150;-2.134;2022-11-04T09:18:35;0.73;;;0.68;;
23628;SDS011;11991;57.150;-2.134;2022-11-04T09:21:03;0.60;;;0.60;;
23628;SDS011;11991;57.150;-2.134;2022-11-04T09:23:31;0.63;;;0.60;;
23628;SDS011;11991;57.150;-2.134;2022-11-04T09:26:12;0.68;;;0.52;;
23628;SDS011;11991;57.150;-2.134;2022-11-04T09:28:43;0.68;;;0.50;;
23628;SDS011;11991;57.150;-2.134;2022-11-04T09:31:12;1.02;;;0.55;;
23628;SDS011;11991;57.150;-2.134;2022-11-04T09:33:41;0.50;;;0.50;;
23628;SDS011;11991;57.150;-2.134;2022-11-04T09:36:09;0.50;;;0.50;;
23628;SDS011;11991;57.150;-2.134;2022-11-04T09:38:38;0.50;;;0.50;;
23628;SDS011;11991;57.150;-2.134;2022-11-04T09:41:55;0.60;;;0.60;;
23628;SDS011;11991;57.150;-2.134;2022-11-04T09:44:07;0.45;;;0.45;;
23628;SDS011;11991;57.150;-2.134;2022-11-04T09:47:19;0.90;;;0.55;;
23628;SDS011;11991;57.150;-2.134;2022-11-04T09:49:48;1.55;;;0.80;;
23628;SDS011;11991;57.150;-2.134;2022-11-04T09:52:22;0.50;;;0.50;;
23628;SDS011;11991;57.150;-2.134;2022-11-04T09:54:54;0.50;;;0.50;;
23628;SDS011;11991;57.150;-2.134;2022-11-04T09:57:25;0.50;;;0.50;;
23628;SDS011;11991;57.150;-2.134;2022-11-04T09:59:52;0.43;;;0.43;;
23628;SDS011;11991;57.150;-2.134;2022-11-04T10:11:05;0.65;;;0.52;;
23628;SDS011;11991;57.150;-2.134;2022-11-04T10:16:26;1.35;;;0.50;;
23628;SDS011;11991;57.150;-2.134;2022-11-04T10:27:43;4.30;;;1.92;;
23628;SDS011;11991;57.150;-2.134;2022-11-04T10:30:28;3.60;;;1.73;;
23628;SDS011;11991;57.150;-2.134;2022-11-04T10:39:48;1.50;;;0.90;;
23628;SDS011;11991;57.150;-2.134;2022-11-04T10:42:49;1.63;;;0.70;;
23628;SDS011;11991;57.150;-2.134;2022-11-04T10:45:41;0.50;;;0.50;;
23628;SDS011;11991;57.150;-2.134;2022-11-04T10:48:24;0.63;;;0.63;;
23628;SDS011;11991;57.150;-2.134;2022-11-04T10:51:04;1.50;;;0.90;;
23628;SDS011;11991;57.150;-2.134;2022-11-04T10:53:35;1.98;;;0.98;;
23628;SDS011;11991;57.150;-2.134;2022-11-04T10:56:05;1.67;;;1.10;;
23628;SDS011;11991;57.150;-2.134;2022-11-04T10:58:55;1.10;;;0.90;;
23628;SDS011;11991;57.150;-2.134;2022-11-04T11:01:33;1.15;;;1.00;;
23628;SDS011;11991;57.150;-2.134;2022-11-04T11:04:02;1.10;;;0.90;;
23628;SDS011;11991;57.150;-2.134;2022-11-04T11:06:33;0.70;;;0.70;;
23628;SDS011;11991;57.150;-2.134;2022-11-04T11:11:49;1.08;;;0.95;;
23628;SDS011;11991;57.150;-2.134;2022-11-04T11:17:43;0.60;;;0.60;;
23628;SDS011;11991;57.150;-2.134;2022-11-04T11:20:00;0.75;;;0.60;;
23628;SDS011;11991;57.150;-2.134;2022-11-04T11:22:38;1.10;;;0.50;;
23628;SDS011;11991;57.150;-2.134;2022-11-04T11:30:28;0.73;;;0.47;;
23628;SDS011;11991;57.150;-2.134;2022-11-04T11:32:58;0.50;;;0.50;;
23628;SDS011;11991;57.150;-2.134;2022-11-04T11:35:36;1.33;;;0.40;;
23628;SDS011;11991;57.150;-2.134;2022-11-04T11:38:21;1.10;;;0.50;;
23628;SDS011;11991;57.150;-2.134;2022-11-04T11:41:06;0.77;;;0.50;;
23628;SDS011;11991;57.150;-2.134;2022-11-04T11:43:51;0.60;;;0.55;;
23628;SDS011;11991;57.150;-2.134;2022-11-04T11:46:20;0.77;;;0.63;;
23628;SDS011;11991;57.150;-2.134;2022-11-04T11:48:50;0.50;;;0.45;;
23628;SDS011;11991;57.150;-2.134;2022-11-04T11:51:27;1.65;;;0.50;;
23628;SDS011;11991;57.150;-2.134;2022-11-04T11:54:12;0.65;;;0.40;;
23628;SDS011;11991;57.150;-2.134;2022-11-04T11:56:45;0.88;;;0.50;;
23628;SDS011;11991;57.150;-2.134;2022-11-04T12:05:56;0.82;;;0.47;;
23628;SDS011;11991;57.150;-2.134;2022-11-04T12:08:45;0.77;;;0.50;;
23628;SDS011;11991;57.150;-2.134;2022-11-04T12:20:03;0.50;;;0.50;;
23628;SDS011;11991;57.150;-2.134;2022-11-04T12:30:48;0.75;;;0.40;;
23628;SDS011;11991;57.150;-2.134;2022-11-04T12:33:58;1.10;;;0.60;;
23628;SDS011;11991;57.150;-2.134;2022-11-04T12:36:46;0.40;;;0.40;;
23628;SDS011;11991;57.150;-2.134;2022-11-04T12:39:58;1.33;;;0.45;;
23628;SDS011;11991;57.150;-2.134;2022-11-04T12:56:39;0.80;;;0.80;;
23628;SDS011;11991;57.150;-2.134;2022-11-04T13:02:27;1.88;;;0.70;;
23628;SDS011;11991;57.150;-2.134;2022-11-04T13:05:14;1.25;;;0.60;;
23628;SDS011;11991;57.150;-2.134;2022-11-04T13:14:25;1.92;;;0.35;;
23628;SDS011;11991;57.150;-2.134;2022-11-04T13:16:57;0.90;;;0.40;;
23628;SDS011;11991;57.150;-2.134;2022-11-04T13:19:50;0.65;;;0.50;;
23628;SDS011;11991;57.150;-2.134;2022-11-04T13:23:01;0.73;;;0.40;;
23628;SDS011;11991;57.150;-2.134;2022-11-04T13:25:58;1.55;;;0.50;;
23628;SDS011;11991;57.150;-2.134;2022-11-04T13:28:28;1.23;;;0.50;;
23628;SDS011;11991;57.150;-2.134;2022-11-04T13:31:08;1.50;;;0.52;;
23628;SDS011;11991;57.150;-2.134;2022-11-04T13:33:56;0.47;;;0.45;;
23628;SDS011;11991;57.150;-2.134;2022-11-04T13:36:35;1.40;;;0.80;;
23628;SDS011;11991;57.150;-2.134;2022-11-04T13:39:17;0.40;;;0.40;;
23628;SDS011;11991;57.150;-2.134;2022-11-04T13:44:42;0.65;;;0.50;;
23628;SDS011;11991;57.150;-2.134;2022-11-04T13:47:14;1.63;;;0.57;;
23628;SDS011;11991;57.150;-2.134;2022-11-04T13:53:23;0.40;;;0.40;;
23628;SDS011;11991;57.150;-2.134;2022-11-04T13:56:26;0.50;;;0.50;;
23628;SDS011;11991;57.150;-2.134;2022-11-04T14:04:41;1.15;;;0.70;;
23628;SDS011;11991;57.150;-2.134;2022-11-04T14:07:13;1.70;;;0.60;;
23628;SDS011;11991;57.150;-2.134;2022-11-04T14:12:16;3.75;;;1.17;;
23628;SDS011;11991;57.150;-2.134;2022-11-04T14:14:52;1.88;;;1.20;;
23628;SDS011;11991;57.150;-2.134;2022-11-04T14:27:49;1.88;;;1.30;;
23628;SDS011;11991;57.150;-2.134;2022-11-04T14:33:28;4.13;;;2.00;;
23628;SDS011;11991;57.150;-2.134;2022-11-04T14:43:54;1.58;;;0.90;;
23628;SDS011;11991;57.150;-2.134;2022-11-04T14:46:34;1.20;;;1.10;;
23628;SDS011;11991;57.150;-2.134;2022-11-04T14:49:58;1.70;;;1.20;;
23628;SDS011;11991;57.150;-2.134;2022-11-04T14:54:51;1.98;;;1.02;;
23628;SDS011;11991;57.150;-2.134;2022-11-04T14:57:37;1.10;;;0.90;;
23628;SDS011;11991;57.150;-2.134;2022-11-04T15:06:07;1.33;;;1.02;;
23628;SDS011;11991;57.150;-2.134;2022-11-04T15:08:41;4.93;;;1.58;;
23628;SDS011;11991;57.150;-2.134;2022-11-04T15:11:12;0.75;;;0.70;;
23628;SDS011;11991;57.150;-2.134;2022-11-04T15:16:57;1.80;;;0.90;;
23628;SDS011;11991;57.150;-2.134;2022-11-04T15:19:29;1.95;;;0.90;;
23628;SDS011;11991;57.150;-2.134;2022-11-04T15:21:58;1.40;;;0.90;;
23628;SDS011;11991;57.150;-2.134;2022-11-04T15:24:30;1.02;;;0.85;;
23628;SDS011;11991;57.150;-2.134;2022-11-04T15:27:01;1.23;;;0.88;;
23628;SDS011;11991;57.150;-2.134;2022-11-04T15:29:31;1.13;;;1.00;;
23628;SDS011;11991;57.150;-2.134;2022-11-04T15:34:58;1.00;;;0.85;;
23628;SDS011;11991;57.150;-2.134;2022-11-04T15:37:31;1.60;;;0.82;;
23628;SDS011;11991;57.150;-2.134;2022-11-04T15:40:01;1.08;;;0.77;;
23628;SDS011;11991;57.150;-2.134;2022-11-04T15:42:29;2.03;;;1.20;;
23628;SDS011;11991;57.150;-2.134;2022-11-04T15:47:48;0.77;;;0.75;;
23628;SDS011;11991;57.150;-2.134;2022-11-04T15:50:36;1.27;;;1.08;;
23628;SDS011;11991;57.150;-2.134;2022-11-04T15:53:07;2.47;;;1.30;;
23628;SDS011;11991;57.150;-2.134;2022-11-04T16:00:06;2.22;;;1.50;;
23628;SDS011;11991;57.150;-2.134;2022-11-04T16:02:59;1.52;;;1.20;;
23628;SDS011;11991;57.150;-2.134;2022-11-04T16:05:31;3.22;;;1.70;;
23628;SDS011;11991;57.150;-2.134;2022-11-04T16:10:49;1.30;;;1.10;;
23628;SDS011;11991;57.150;-2.134;2022-11-04T16:15:49;2.22;;;1.30;;
23628;SDS011;11991;57.150;-2.134;2022-11-04T16:18:35;2.13;;;1.50;;
23628;SDS011;11991;57.150;-2.134;2022-11-04T16:24:37;1.10;;;0.90;;
23628;SDS011;11991;57.150;-2.134;2022-11-04T16:26:44;1.20;;;1.02;;
23628;SDS011;11991;57.150;-2.134;2022-11-04T16:29:27;4.03;;;1.70;;
23628;SDS011;11991;57.150;-2.134;2022-11-04T16:32:04;1.30;;;0.90;;
23628;SDS011;11991;57.150;-2.134;2022-11-04T16:34:56;2.08;;;1.40;;
23628;SDS011;11991;57.150;-2.134;2022-11-04T16:37:59;3.47;;;1.52;;
23628;SDS011;11991;57.150;-2.134;2022-11-04T16:40:27;1.85;;;1.17;;
23628;SDS011;11991;57.150;-2.134;2022-11-04T16:42:57;1.27;;;0.95;;
23628;SDS011;11991;57.150;-2.134;2022-11-04T16:47:53;2.35;;;1.02;;
23628;SDS011;11991;57.150;-2.134;2022-11-04T16:50:21;0.98;;;0.88;;
23628;SDS011;11991;57.150;-2.134;2022-11-04T16:52:50;0.70;;;0.70;;
23628;SDS011;11991;57.150;-2.134;2022-11-04T16:55:22;2.15;;;1.05;;
23628;SDS011;11991;57.150;-2.134;2022-11-04T16:58:04;1.02;;;0.93;;
23628;SDS011;11991;57.150;-2.134;2022-11-04T17:00:32;1.95;;;1.00;;
23628;SDS011;11991;57.150;-2.134;2022-11-04T17:03:11;1.55;;;1.10;;
23628;SDS011;11991;57.150;-2.134;2022-11-04T17:05:53;2.25;;;1.30;;
23628;SDS011;11991;57.150;-2.134;2022-11-04T17:08:23;0.98;;;0.90;;
23628;SDS011;11991;57.150;-2.134;2022-11-04T17:10:51;1.15;;;1.05;;
23628;SDS011;11991;57.150;-2.134;2022-11-04T17:13:19;2.08;;;1.35;;
23628;SDS011;11991;57.150;-2.134;2022-11-04T17:15:46;2.40;;;1.58;;
23628;SDS011;11991;57.150;-2.134;2022-11-04T17:18:15;1.25;;;1.15;;
23628;SDS011;11991;57.150;-2.134;2022-11-04T17:20:44;1.05;;;0.90;;
23628;SDS011;11991;57.150;-2.134;2022-11-04T17:23:15;2.70;;;1.30;;
23628;SDS011;11991;57.150;-2.134;2022-11-04T17:25:43;2.58;;;1.95;;
23628;SDS011;11991;57.150;-2.134;2022-11-04T17:28:11;3.15;;;2.05;;
23628;SDS011;11991;57.150;-2.134;2022-11-04T17:30:42;2.05;;;1.70;;
23628;SDS011;11991;57.150;-2.134;2022-11-04T17:33:13;5.43;;;2.55;;
23628;SDS011;11991;57.150;-2.134;2022-11-04T17:35:43;2.22;;;1.80;;
23628;SDS011;11991;57.150;-2.134;2022-11-04T17:38:14;2.47;;;2.10;;
23628;SDS011;11991;57.150;-2.134;2022-11-04T17:40:43;4.60;;;3.53;;
23628;SDS011;11991;57.150;-2.134;2022-11-04T17:43:43;2.88;;;1.90;;
23628;SDS011;11991;57.150;-2.134;2022-11-04T17:46:29;2.38;;;1.70;;
23628;SDS011;11991;57.150;-2.134;2022-11-04T17:49:11;3.55;;;2.35;;
23628;SDS011;11991;57.150;-2.134;2022-11-04T17:51:41;3.65;;;2.13;;
23628;SDS011;11991;57.150;-2.134;2022-11-04T17:54:14;4.03;;;2.25;;
23628;SDS011;11991;57.150;-2.134;2022-11-04T17:56:44;3.15;;;2.13;;
23628;SDS011;11991;57.150;-2.134;2022-11-04T17:59:12;2.90;;;2.28;;
23628;SDS011;11991;57.150;-2.134;2022-11-04T18:01:42;2.33;;;2.03;;
23628;SDS011;11991;57.150;-2.134;2022-11-04T18:04:16;4.25;;;3.25;;
23628;SDS011;11991;57.150;-2.134;2022-11-04T18:06:46;5.65;;;3.75;;
23628;SDS011;11991;57.150;-2.134;2022-11-04T18:09:15;2.25;;;1.70;;
23628;SDS011;11991;57.150;-2.134;2022-11-04T18:11:44;1.80;;;1.40;;
23628;SDS011;11991;57.150;-2.134;2022-11-04T18:14:31;1.92;;;1.58;;
23628;SDS011;11991;57.150;-2.134;2022-11-04T18:16:59;3.47;;;1.48;;
23628;SDS011;11991;57.150;-2.134;2022-11-04T18:19:27;2.05;;;1.48;;
23628;SDS011;11991;57.150;-2.134;2022-11-04T18:21:55;1.98;;;1.77;;
23628;SDS011;11991;57.150;-2.134;2022-11-04T18:24:22;3.83;;;3.20;;